createdAt,value
2018-02-10T00:01:56.362Z,56.95
2018-02-10T00:04:23.912Z,55.50
2018-02-10T00:06:51.376Z,54.08
2018-02-10T00:09:19.070Z,51.40
2018-02-10T00:11:46.551Z,50.35
2018-02-10T00:14:14.100Z,53.15
2018-02-10T00:16:41.667Z,51.37
2018-02-10T00:19:09.172Z,50.57
2018-02-10T00:21:37.431Z,48.10
2018-02-10T00:24:04.896Z,46.53
2018-02-10T00:26:32.392Z,56.35
2018-02-10T00:28:59.905Z,50.67
2018-02-10T00:31:28.137Z,49.72
2018-02-10T00:33:57.111Z,50.70
2018-02-10T00:36:24.592Z,49.97
2018-02-10T00:38:52.065Z,47.00
2018-02-10T00:41:19.631Z,54.30
2018-02-10T00:43:47.089Z,49.63
2018-02-10T00:46:14.551Z,50.88
2018-02-10T00:48:42.031Z,45.35
2018-02-10T00:51:09.491Z,50.55
2018-02-10T00:53:36.963Z,48.42
2018-02-10T00:56:04.459Z,53.00
2018-02-10T00:58:31.924Z,44.00
2018-02-10T01:00:59.496Z,53.58
2018-02-10T01:03:26.956Z,53.53
2018-02-10T01:05:54.420Z,49.80
2018-02-10T01:08:21.900Z,50.38
2018-02-10T01:10:49.375Z,47.13
2018-02-10T01:13:16.863Z,42.28
2018-02-10T01:15:44.373Z,45.90
2018-02-10T01:18:11.887Z,50.42
2018-02-10T01:20:39.348Z,48.07
2018-02-10T01:23:06.816Z,56.95
2018-02-10T01:25:34.303Z,69.30
2018-02-10T01:28:01.788Z,59.47
2018-02-10T01:30:29.363Z,79.05
2018-02-10T01:32:56.820Z,62.80
2018-02-10T01:35:24.384Z,64.73
2018-02-10T01:37:51.961Z,96.37
2018-02-10T01:40:19.525Z,93.55
2018-02-10T01:42:47.191Z,84.50
2018-02-10T01:45:14.660Z,76.72
2018-02-10T01:47:42.128Z,71.37
2018-02-10T01:50:21.589Z,90.68
2018-02-10T01:52:49.171Z,52.45
2018-02-10T01:55:16.619Z,79.53
2018-02-10T01:57:44.108Z,77.87
2018-02-10T02:00:11.588Z,45.95
2018-02-10T02:02:39.152Z,60.95
2018-02-10T02:05:06.683Z,74.22
2018-02-10T02:07:34.900Z,47.90
2018-02-10T02:10:02.468Z,63.97
2018-02-10T02:12:29.936Z,63.22
2018-02-10T02:14:57.396Z,57.08
2018-02-10T02:17:24.868Z,74.03
2018-02-10T02:19:52.352Z,139.65
2018-02-10T02:22:19.832Z,65.78
2018-02-10T02:24:47.386Z,52.33
2018-02-10T02:27:14.856Z,54.78
2018-02-10T02:29:42.429Z,49.40
2018-02-10T02:32:09.896Z,44.08
2018-02-10T02:34:37.388Z,39.72
2018-02-10T02:37:04.853Z,39.83
2018-02-10T02:39:32.413Z,39.78
2018-02-10T02:41:59.876Z,41.50
2018-02-10T02:44:27.357Z,41.92
2018-02-10T02:46:54.933Z,39.33
2018-02-10T02:49:22.405Z,38.60
2018-02-10T02:51:49.876Z,44.45
2018-02-10T02:54:17.428Z,41.30
2018-02-10T02:56:44.895Z,40.05
2018-02-10T02:59:12.419Z,40.78
2018-02-10T03:01:40.659Z,41.92
2018-02-10T03:04:08.124Z,39.00
2018-02-10T03:06:35.604Z,42.05
2018-02-10T03:09:03.271Z,39.95
2018-02-10T03:11:30.841Z,39.67
2018-02-10T03:13:58.416Z,42.62
2018-02-10T03:16:26.100Z,43.45
2018-02-10T03:18:53.665Z,45.38
2018-02-10T03:21:21.137Z,43.45
2018-02-10T03:23:48.637Z,40.90
2018-02-10T03:26:16.887Z,42.60
2018-02-10T03:28:44.364Z,39.93
2018-02-10T03:31:11.845Z,46.85
2018-02-10T03:33:39.404Z,42.35
2018-02-10T03:36:06.864Z,42.50
2018-02-10T03:38:34.335Z,40.78
2018-02-10T03:41:01.816Z,42.85
2018-02-10T03:43:29.271Z,42.05
2018-02-10T03:45:56.732Z,43.20
2018-02-10T03:48:24.213Z,42.75
2018-02-10T03:50:51.679Z,44.05
2018-02-10T03:53:19.360Z,42.00
2018-02-10T03:55:46.936Z,43.85
2018-02-10T03:58:14.396Z,44.60
2018-02-10T04:00:41.980Z,41.28
2018-02-10T04:03:09.444Z,41.33
2018-02-10T04:05:36.908Z,43.00
2018-02-10T04:08:04.383Z,43.05
2018-02-10T04:10:31.856Z,42.33
2018-02-10T04:12:59.333Z,44.15
2018-02-10T04:15:26.792Z,46.30
2018-02-10T04:17:54.264Z,45.17
2018-02-10T04:20:21.844Z,46.92
2018-02-10T04:22:49.301Z,51.03
2018-02-10T04:25:16.777Z,49.67
2018-02-10T04:27:44.289Z,47.72
2018-02-10T04:30:12.529Z,48.40
2018-02-10T04:32:40.103Z,50.28
2018-02-10T04:35:07.568Z,47.83
2018-02-10T04:37:35.028Z,50.08
2018-02-10T04:40:02.816Z,52.53
2018-02-10T04:42:30.273Z,53.55
2018-02-10T04:44:57.735Z,53.70
2018-02-10T04:47:25.200Z,50.63
2018-02-10T04:49:52.672Z,57.40
2018-02-10T04:52:20.136Z,57.78
2018-02-10T04:54:47.652Z,59.65
2018-02-10T04:57:15.108Z,62.55
2018-02-10T04:59:42.592Z,66.70
2018-02-10T05:02:10.052Z,67.03
2018-02-10T05:04:37.515Z,74.85
2018-02-10T05:07:04.980Z,70.90
2018-02-10T05:09:32.554Z,65.77
2018-02-10T05:12:00.033Z,72.03
2018-02-10T05:14:27.493Z,72.95
2018-02-10T05:16:55.076Z,80.47
2018-02-10T05:19:22.636Z,73.62
2018-02-10T05:21:50.228Z,76.43
2018-02-10T05:24:17.708Z,86.87
2018-02-10T05:26:45.964Z,91.90
2018-02-10T05:29:13.636Z,77.47
2018-02-10T05:31:41.111Z,87.68
2018-02-10T05:34:08.579Z,89.32
2018-02-10T05:36:36.149Z,87.03
2018-02-10T05:39:03.613Z,79.15
2018-02-10T05:41:31.084Z,86.75
2018-02-10T05:43:58.555Z,92.25
2018-02-10T05:46:26.045Z,83.93
2018-02-10T05:48:53.599Z,85.45
2018-02-10T05:51:21.080Z,87.55
2018-02-10T05:53:48.649Z,94.90
2018-02-10T05:56:16.124Z,90.40
2018-02-10T05:58:43.692Z,91.00
2018-02-10T06:01:11.153Z,103.15
2018-02-10T06:03:38.612Z,95.87
2018-02-10T06:06:06.092Z,90.55
2018-02-10T06:08:33.556Z,91.45
2018-02-10T06:11:01.024Z,98.93
2018-02-10T06:13:28.704Z,108.43
2018-02-10T06:15:56.165Z,93.82
2018-02-10T06:18:23.644Z,97.82
2018-02-10T06:20:51.123Z,104.30
2018-02-10T06:23:18.611Z,100.60
2018-02-10T06:25:46.836Z,90.70
2018-02-10T06:28:14.340Z,88.35
2018-02-10T06:30:41.924Z,107.20
2018-02-10T06:33:09.584Z,93.12
2018-02-10T06:35:37.055Z,101.90
2018-02-10T06:38:04.548Z,102.68
2018-02-10T06:40:32.097Z,99.87
2018-02-10T06:42:59.576Z,109.12
2018-02-10T06:45:28.672Z,104.95
2018-02-10T06:47:56.256Z,102.35
2018-02-10T06:50:23.870Z,107.80
2018-02-10T06:52:52.120Z,103.95
2018-02-10T06:55:20.439Z,113.25
2018-02-10T06:57:48.692Z,120.28
2018-02-10T07:00:16.156Z,118.30
2018-02-10T07:02:43.725Z,109.43
2018-02-10T07:05:11.209Z,111.22
2018-02-10T07:07:38.676Z,110.68
2018-02-10T07:10:06.136Z,96.37
2018-02-10T07:12:33.605Z,104.07
2018-02-10T07:15:01.188Z,106.32
2018-02-10T07:17:28.748Z,106.75
2018-02-10T07:19:56.319Z,108.05
2018-02-10T07:22:23.785Z,104.40
2018-02-10T07:24:51.271Z,106.35
2018-02-10T07:27:18.740Z,101.10
2018-02-10T07:29:46.224Z,106.90
2018-02-10T07:32:13.779Z,101.18
2018-02-10T07:34:41.252Z,108.35
2018-02-10T07:37:08.733Z,116.90
2018-02-10T07:39:36.284Z,102.40
2018-02-10T07:42:03.855Z,110.65
2018-02-10T07:44:31.441Z,104.82
2018-02-10T07:46:59.000Z,103.95
2018-02-10T07:49:26.464Z,104.25
2018-02-10T07:51:53.956Z,108.40
2018-02-10T07:54:21.420Z,110.72
2018-02-10T07:56:48.880Z,98.53
2018-02-10T07:59:16.391Z,90.60
2018-02-10T08:01:44.649Z,97.28
2018-02-10T08:04:12.128Z,101.10
2018-02-10T08:06:39.688Z,99.03
2018-02-10T08:09:07.160Z,99.35
2018-02-10T08:11:34.624Z,104.75
2018-02-10T08:14:02.192Z,91.45
2018-02-10T08:16:29.664Z,95.82
2018-02-10T08:18:57.124Z,95.43
2018-02-10T08:21:24.708Z,108.03
2018-02-10T08:23:52.988Z,97.03
2018-02-10T08:26:20.448Z,96.20
2018-02-10T08:28:47.932Z,102.72
2018-02-10T08:31:15.416Z,94.15
2018-02-10T08:33:43.668Z,96.65
2018-02-10T08:36:11.160Z,98.35
2018-02-10T08:38:38.722Z,102.03
2018-02-10T08:41:06.201Z,89.35
2018-02-10T08:43:33.658Z,92.10
2018-02-10T08:46:01.234Z,92.35
2018-02-10T08:48:29.468Z,89.65
2018-02-10T08:50:57.002Z,89.57
2018-02-10T08:53:24.484Z,85.35
2018-02-10T08:55:52.135Z,85.75
2018-02-10T08:58:19.708Z,80.50
2018-02-10T09:00:47.172Z,86.12
2018-02-10T09:03:14.648Z,86.03
2018-02-10T09:05:42.215Z,88.12
2018-02-10T09:08:09.692Z,78.95
2018-02-10T09:10:37.267Z,78.20
2018-02-10T09:13:04.836Z,80.80
2018-02-10T09:15:32.404Z,84.17
2018-02-10T09:17:59.879Z,79.28
2018-02-10T09:20:27.529Z,79.10
2018-02-10T09:22:55.016Z,72.78
2018-02-10T09:25:22.476Z,73.40
2018-02-10T09:27:49.956Z,74.57
2018-02-10T09:30:17.428Z,74.78
2018-02-10T09:32:44.934Z,62.90
2018-02-10T09:35:13.176Z,68.75
2018-02-10T09:37:40.644Z,69.15
2018-02-10T09:40:08.132Z,67.32
2018-02-10T09:42:35.692Z,72.95
2018-02-10T09:45:03.158Z,62.38
2018-02-10T09:47:30.736Z,64.57
2018-02-10T09:49:58.198Z,71.68
2018-02-10T09:52:25.672Z,69.07
2018-02-10T09:54:53.136Z,59.23
2018-02-10T09:57:20.603Z,68.35
2018-02-10T09:59:48.084Z,73.53
2018-02-10T10:02:15.556Z,71.37
2018-02-10T10:04:43.128Z,65.80
2018-02-10T10:07:10.592Z,70.95
2018-02-10T10:09:38.076Z,76.62
2018-02-10T10:12:05.536Z,79.25
2018-02-10T10:14:32.993Z,72.53
2018-02-10T10:17:00.464Z,66.50
2018-02-10T10:19:27.951Z,68.72
2018-02-10T10:21:55.420Z,73.95
2018-02-10T10:24:22.992Z,74.05
2018-02-10T10:26:50.468Z,66.35
2018-02-10T10:29:17.929Z,71.00
2018-02-10T10:31:46.920Z,73.93
2018-02-10T10:34:14.389Z,78.25
2018-02-10T10:36:41.864Z,77.07
2018-02-10T10:39:09.436Z,77.80
2018-02-10T10:41:36.908Z,72.55
2018-02-10T10:44:04.379Z,75.32
2018-02-10T10:46:31.876Z,75.45
2018-02-10T10:49:00.144Z,75.25
2018-02-10T10:51:27.612Z,78.00
2018-02-10T10:53:55.173Z,72.00
2018-02-10T10:56:22.671Z,80.43
2018-02-10T10:58:50.900Z,93.37
2018-02-10T11:01:18.367Z,83.03
2018-02-10T11:03:45.977Z,96.28
2018-02-10T11:06:14.180Z,97.60
2018-02-10T11:08:41.640Z,111.93
2018-02-10T11:11:09.108Z,94.33
2018-02-10T11:13:36.580Z,106.53
2018-02-10T11:16:04.092Z,108.37
2018-02-10T11:18:31.569Z,94.53
2018-02-10T11:20:59.130Z,100.28
2018-02-10T11:23:27.368Z,100.38
2018-02-10T11:25:54.940Z,101.82
2018-02-10T11:28:22.458Z,94.20
2018-02-10T11:30:49.885Z,92.05
2018-02-10T11:33:17.352Z,90.50
2018-02-10T11:35:44.828Z,97.30
2018-02-10T11:38:12.404Z,89.90
2018-02-10T11:40:39.904Z,88.70
2018-02-10T11:43:07.480Z,87.70
2018-02-10T11:45:35.717Z,106.97
2018-02-10T11:48:03.188Z,95.90
2018-02-10T11:50:30.651Z,96.35
2018-02-10T11:52:58.139Z,113.40
2018-02-10T11:55:25.600Z,111.95
2018-02-10T11:57:53.060Z,101.90
2018-02-10T12:00:20.640Z,108.73
2018-02-10T12:02:48.115Z,103.85
2018-02-10T12:05:15.682Z,101.78
2018-02-10T12:07:43.139Z,98.62
2018-02-10T12:10:10.618Z,94.50
2018-02-10T12:12:38.073Z,95.53
2018-02-10T12:15:05.540Z,92.82
2018-02-10T12:17:32.998Z,89.53
2018-02-10T12:20:00.527Z,92.70
2018-02-10T12:22:27.943Z,83.60
2018-02-10T12:24:55.453Z,94.90
2018-02-10T12:27:22.919Z,97.57
2018-02-10T12:29:50.384Z,101.60
2018-02-10T12:32:18.744Z,91.50
2018-02-10T12:34:46.204Z,100.25
2018-02-10T12:37:13.668Z,98.82
2018-02-10T12:39:41.176Z,101.82
2018-02-10T12:42:08.748Z,105.82
2018-02-10T12:44:36.216Z,110.05
2018-02-10T12:47:03.801Z,108.32
2018-02-10T12:49:32.279Z,104.97
2018-02-10T12:51:59.740Z,114.93
2018-02-10T12:54:27.223Z,117.55
2018-02-10T12:56:54.675Z,135.88
2018-02-10T12:59:22.160Z,124.18
2018-02-10T13:01:49.747Z,120.53
2018-02-10T13:04:17.217Z,128.20
2018-02-10T13:06:44.799Z,117.35
2018-02-10T13:09:12.291Z,126.95
2018-02-10T13:11:39.750Z,127.10
2018-02-10T13:14:07.988Z,135.80
2018-02-10T13:16:35.460Z,130.20
2018-02-10T13:19:02.920Z,126.57
2018-02-10T13:21:30.408Z,125.20
2018-02-10T13:23:57.876Z,133.50
2018-02-10T13:26:25.464Z,130.57
2018-02-10T13:28:52.960Z,132.00
2018-02-10T13:31:21.197Z,147.10
2018-02-10T13:33:48.660Z,147.48
2018-02-10T13:36:16.164Z,125.97
2018-02-10T13:38:43.629Z,131.35
2018-02-10T13:41:12.010Z,123.53
2018-02-10T13:43:39.495Z,138.57
2018-02-10T13:46:08.464Z,140.20
2018-02-10T13:48:37.895Z,164.60
2018-02-10T13:51:05.364Z,160.07
2018-02-10T13:53:32.835Z,141.32
2018-02-10T13:56:00.409Z,151.00
2018-02-10T13:58:27.880Z,136.90
2018-02-10T14:00:55.455Z,119.75
2018-02-10T14:03:24.435Z,138.80
2018-02-10T14:05:51.924Z,117.00
2018-02-10T14:08:19.505Z,102.32
2018-02-10T14:10:46.988Z,126.22
2018-02-10T14:13:15.236Z,115.07
2018-02-10T14:15:42.715Z,117.22
2018-02-10T14:18:10.292Z,102.40
2018-02-10T14:20:37.763Z,106.65
2018-02-10T14:23:05.227Z,112.85
2018-02-10T14:25:32.712Z,97.68
2018-02-10T14:28:00.174Z,94.43
2018-02-10T14:30:27.756Z,108.85
2018-02-10T14:32:55.420Z,109.65
2018-02-10T14:35:22.892Z,125.30
2018-02-10T14:37:50.357Z,127.43
2018-02-10T14:40:17.928Z,118.87
2018-02-10T14:42:45.416Z,112.20
2018-02-10T14:45:13.644Z,125.75
2018-02-10T14:47:41.111Z,132.93
2018-02-10T14:50:08.608Z,127.95
2018-02-10T14:52:36.080Z,113.60
2018-02-10T14:55:03.562Z,138.40
2018-02-10T14:57:31.028Z,126.03
2018-02-10T14:59:58.487Z,141.30
2018-02-10T15:02:25.965Z,130.85
2018-02-10T15:04:53.440Z,125.50
2018-02-10T15:07:20.909Z,128.43
2018-02-10T15:09:48.372Z,115.05
2018-02-10T15:12:15.864Z,113.40
2018-02-10T15:14:43.430Z,99.75
2018-02-10T15:17:10.900Z,100.15
2018-02-10T15:19:38.392Z,108.03
2018-02-10T15:22:06.655Z,102.22
2018-02-10T15:24:34.115Z,99.75
2018-02-10T15:27:01.612Z,96.80
2018-02-10T15:29:41.697Z,105.20
2018-02-10T15:32:21.179Z,98.32
2018-02-10T15:34:58.628Z,106.03
2018-02-10T15:37:26.881Z,103.18
2018-02-10T15:39:54.367Z,108.97
2018-02-10T15:42:21.851Z,114.70
2018-02-10T15:44:50.129Z,125.18
2018-02-10T15:47:17.604Z,114.53
2018-02-10T15:49:45.211Z,99.18
2018-02-10T15:52:12.696Z,105.40
2018-02-10T15:54:40.213Z,91.57
2018-02-10T15:57:07.779Z,96.25
2018-02-10T15:59:35.345Z,104.80
2018-02-10T16:02:02.809Z,113.20
2018-02-10T16:04:30.292Z,111.20
2018-02-10T16:06:57.866Z,101.33
2018-02-10T16:09:25.336Z,97.32
2018-02-10T16:11:52.809Z,90.75
2018-02-10T16:14:20.464Z,94.28
2018-02-10T16:16:47.935Z,91.22
2018-02-10T16:19:15.392Z,94.55
2018-02-10T16:21:42.860Z,90.80
2018-02-10T16:24:10.344Z,92.53
2018-02-10T16:26:37.812Z,88.80
2018-02-10T16:29:05.295Z,93.53
2018-02-10T16:31:32.863Z,90.50
2018-02-10T16:34:00.340Z,88.00
2018-02-10T16:36:27.805Z,88.75
2018-02-10T16:38:55.367Z,99.07
2018-02-10T16:41:22.841Z,91.55
2018-02-10T16:43:50.324Z,96.95
2018-02-10T16:46:17.788Z,109.78
2018-02-10T16:48:45.400Z,110.00
2018-02-10T16:51:12.902Z,122.25
2018-02-10T16:53:40.492Z,127.47
2018-02-10T16:56:07.967Z,131.75
2018-02-10T16:58:35.536Z,123.07
2018-02-10T17:01:03.156Z,147.90
2018-02-10T17:03:31.380Z,155.50
2018-02-10T17:05:58.868Z,159.98
2018-02-10T17:08:26.331Z,142.17
2018-02-10T17:10:53.816Z,143.23
2018-02-10T17:13:21.387Z,145.48
2018-02-10T17:15:48.876Z,162.37
2018-02-10T17:18:17.116Z,152.62
2018-02-10T17:20:44.596Z,134.95
2018-02-10T17:23:12.172Z,155.20
2018-02-10T17:25:39.648Z,142.02
2018-02-10T17:28:07.220Z,125.87
2018-02-10T17:30:34.689Z,125.15
2018-02-10T17:33:02.256Z,137.00
2018-02-10T17:35:29.728Z,129.00
2018-02-10T17:37:57.230Z,129.63
2018-02-10T17:40:25.500Z,134.85
2018-02-10T17:42:52.976Z,130.18
2018-02-10T17:45:20.444Z,126.78
2018-02-10T17:47:47.998Z,117.87
2018-02-10T17:50:15.473Z,117.87
2018-02-10T17:52:42.941Z,131.30
2018-02-10T17:55:10.408Z,122.25
2018-02-10T17:57:37.978Z,111.40
2018-02-10T18:00:05.663Z,117.15
2018-02-10T18:02:33.220Z,118.43
2018-02-10T18:05:00.743Z,111.40
2018-02-10T18:07:28.991Z,116.88
2018-02-10T18:09:56.552Z,113.53
2018-02-10T18:12:24.125Z,107.40
2018-02-10T18:14:51.588Z,95.50
2018-02-10T18:17:19.053Z,97.47
2018-02-10T18:19:46.539Z,98.15
2018-02-10T18:22:14.027Z,93.05
2018-02-10T18:24:41.558Z,93.00
2018-02-10T18:27:09.044Z,90.68
2018-02-10T18:29:36.508Z,92.47
2018-02-10T18:32:04.238Z,83.62
2018-02-10T18:34:32.457Z,92.27
2018-02-10T18:36:59.919Z,82.70
2018-02-10T18:39:27.390Z,90.23
2018-02-10T18:41:54.878Z,91.32
2018-02-10T18:44:22.368Z,89.62
2018-02-10T18:46:49.929Z,85.15
2018-02-10T18:49:17.400Z,81.12
2018-02-10T18:51:44.883Z,93.15
2018-02-10T18:54:12.345Z,87.72
2018-02-10T18:56:39.904Z,89.35
2018-02-10T18:59:07.384Z,78.17
2018-02-10T19:01:34.856Z,81.20
2018-02-10T19:04:02.328Z,79.90
2018-02-10T19:06:29.820Z,73.10
2018-02-10T19:08:58.092Z,71.35
2018-02-10T19:11:25.571Z,69.15
2018-02-10T19:13:53.804Z,70.93
2018-02-10T19:16:21.453Z,63.38
2018-02-10T19:18:49.696Z,66.57
2018-02-10T19:21:17.940Z,68.28
2018-02-10T19:23:45.436Z,60.55
2018-02-10T19:26:12.918Z,55.40
2018-02-10T19:28:40.380Z,55.10
2018-02-10T19:31:07.856Z,49.13
2018-02-10T19:33:35.335Z,52.73
2018-02-10T19:36:02.797Z,49.88
2018-02-10T19:38:30.277Z,49.30
2018-02-10T19:40:57.868Z,51.85
2018-02-10T19:43:25.318Z,49.78
2018-02-10T19:45:52.880Z,43.30
2018-02-10T19:48:20.365Z,46.60
2018-02-10T19:50:47.833Z,44.97
2018-02-10T19:53:15.329Z,39.90
2018-02-10T19:55:43.585Z,41.17
2018-02-10T19:58:11.054Z,40.67
2018-02-10T20:00:38.616Z,40.03
2018-02-10T20:03:06.084Z,39.92
2018-02-10T20:05:33.760Z,41.37
2018-02-10T20:08:01.252Z,40.77
2018-02-10T20:10:28.716Z,45.20
2018-02-10T20:12:56.199Z,44.13
2018-02-10T20:15:24.467Z,42.50
2018-02-10T20:17:52.081Z,38.15
2018-02-10T20:20:20.370Z,40.53
2018-02-10T20:22:48.620Z,37.60
2018-02-10T20:25:16.184Z,40.03
2018-02-10T20:27:43.652Z,41.55
2018-02-10T20:30:11.220Z,39.55
2018-02-10T20:32:38.701Z,36.72
2018-02-10T20:35:06.169Z,44.65
2018-02-10T20:37:33.654Z,42.33
2018-02-10T20:40:01.120Z,41.67
2018-02-10T20:42:28.600Z,36.80
2018-02-10T20:44:56.960Z,38.00
2018-02-10T20:47:24.424Z,38.80
2018-02-10T20:49:51.880Z,37.20
2018-02-10T20:52:19.352Z,39.87
2018-02-10T20:54:46.820Z,43.33
2018-02-10T20:57:14.340Z,35.63
2018-02-10T20:59:42.605Z,34.92
2018-02-10T21:02:10.064Z,36.03
2018-02-10T21:04:37.540Z,33.17
2018-02-10T21:07:05.104Z,35.72
2018-02-10T21:09:32.568Z,29.95
2018-02-10T21:12:00.050Z,31.70
2018-02-10T21:14:27.524Z,33.75
2018-02-10T21:16:55.016Z,35.00
2018-02-10T21:19:23.287Z,32.55
2018-02-10T21:21:50.848Z,35.38
2018-02-10T21:24:18.419Z,32.70
2018-02-10T21:26:45.913Z,35.13
2018-02-10T21:29:14.221Z,31.35
2018-02-10T21:31:41.752Z,32.33
2018-02-10T21:34:09.230Z,27.33
2018-02-10T21:36:36.692Z,22.92
2018-02-10T21:39:04.157Z,30.27
2018-02-10T21:41:31.636Z,28.87
2018-02-10T21:43:59.105Z,25.42
2018-02-10T21:46:26.580Z,27.77
2018-02-10T21:48:54.044Z,27.73
2018-02-10T21:51:21.515Z,25.50
2018-02-10T21:53:49.112Z,21.87
2018-02-10T21:56:16.647Z,19.52
2018-02-10T21:58:44.113Z,20.10
2018-02-10T22:01:11.924Z,23.27
2018-02-10T22:03:40.164Z,19.90
2018-02-10T22:06:07.629Z,22.85
2018-02-10T22:08:35.092Z,19.37
2018-02-10T22:11:02.553Z,21.33
2018-02-10T22:13:30.060Z,18.40
2018-02-10T22:15:57.524Z,18.10
2018-02-10T22:18:25.012Z,16.70
2018-02-10T22:20:52.506Z,15.07
2018-02-10T22:23:20.769Z,19.83
2018-02-10T22:25:48.336Z,19.80
2018-02-10T22:28:15.804Z,17.37
2018-02-10T22:30:43.385Z,12.05
2018-02-10T22:33:10.848Z,14.43
2018-02-10T22:35:38.427Z,15.10
2018-02-10T22:38:05.984Z,18.48
2018-02-10T22:40:33.444Z,13.20
2018-02-10T22:43:00.924Z,14.93
2018-02-10T22:45:28.499Z,13.30
2018-02-10T22:47:55.976Z,14.52
2018-02-10T22:50:23.536Z,15.18
2018-02-10T22:52:51.108Z,14.07
2018-02-10T22:55:18.575Z,12.50
2018-02-10T22:57:46.036Z,15.23
2018-02-10T23:00:13.516Z,13.68
2018-02-10T23:02:41.004Z,13.23
2018-02-10T23:05:08.557Z,10.20
2018-02-10T23:07:36.036Z,11.35
2018-02-10T23:10:03.492Z,13.18
2018-02-10T23:12:30.964Z,11.53
2018-02-10T23:14:58.549Z,13.02
2018-02-10T23:17:26.016Z,10.15
2018-02-10T23:19:53.584Z,10.07
2018-02-10T23:22:21.040Z,8.82
2018-02-10T23:24:48.528Z,11.25
2018-02-10T23:27:16.017Z,10.57
2018-02-10T23:29:44.282Z,10.90
2018-02-10T23:32:11.795Z,10.73
2018-02-10T23:34:40.036Z,11.65
2018-02-10T23:37:07.504Z,10.63
2018-02-10T23:39:34.975Z,10.82
2018-02-10T23:42:02.495Z,9.50
2018-02-10T23:44:30.727Z,12.43
2018-02-10T23:46:58.208Z,12.82
2018-02-10T23:49:25.664Z,9.57
2018-02-10T23:51:53.137Z,7.57
2018-02-10T23:54:20.607Z,8.93
2018-02-10T23:56:48.080Z,9.18
2018-02-10T23:59:15.664Z,9.57
